Главная страница
METAR-TAF:

METAR-TAF

Аэропорты :

Мардин, Турция

широта: 37-13-58N, долгота: 40-38-26E, высота над уровнем моря: 527 м

Текущие метеонаблюдения

Эта сводка был подготовлена 43 минут назад, в 05:50 UTC
Ветер 8 Узел от северный, изменяющийся между северно-северо-западный и северо-северо-восточный
Температура 26°C
Влажность 28%
Давление 1016 hPa
Видимость 10 км и более
Нет облачности ниже 1500 м, и нет кучево-дождевой облачности

METAR: LTCR 240550Z 36008KT 330V030 CAVOK 26/06 Q1016

Время: 09:33 (06:33 UTC)

Прогноз

Эта сводка был подготовлена 1 час и 53 минут назад, в 04:40 UTC
Прогноз действительный с 24-го 06 UTC до 24-го 15 UTC
Ветер 2 Узел переменных направлений
Видимость 10 км и более
Нет облачности ниже 1500 м, и нет кучево-дождевой облачности

TAF: LTCR 240440Z 2406/2415 VRB02KT CAVOK

Метеонаблюдения и прогнозы для более 4000 аэропортов (сводки METAR и TAF).

Имеющиеся станции представлены на карте желтыми и красными точками.

Чтобы увидеть название станции, наведите на нее мышь.

Затем щелкните, чтобы увидеть метеонаблюдения и метеопрогнозы.

Управление картой: чтобы увеличить масштаб, щелкните зеленые кнопки с черным крестиком; чтобы уменьшить масштаб, щелкните зеленую кнопку с тире; для просмотра соседних карт щелкайте зеленые стрелки.


METAR-TAF: